createdAt,value
2022-12-01T00:01:40.189Z,18.27
2022-12-01T00:04:06.917Z,16.25
2022-12-01T00:06:43.614Z,13.68
2022-12-01T00:09:24.284Z,15.57
2022-12-01T00:11:53.762Z,14.18
2022-12-01T00:14:20.461Z,17.27
2022-12-01T00:16:47.387Z,14.20
2022-12-01T00:19:14.552Z,13.30
2022-12-01T00:21:41.376Z,14.15
2022-12-01T00:24:09.918Z,14.85
2022-12-01T00:26:40.703Z,13.90
2022-12-01T00:29:07.750Z,13.52
2022-12-01T00:31:34.746Z,13.75
2022-12-01T00:34:11.400Z,14.35
2022-12-01T00:36:38.668Z,16.35
2022-12-01T00:39:05.526Z,15.30
2022-12-01T00:41:32.199Z,15.05
2022-12-01T00:43:59.176Z,15.65
2022-12-01T00:46:26.200Z,16.52
2022-12-01T00:48:53.220Z,15.45
2022-12-01T00:51:20.165Z,14.02
2022-12-01T00:53:49.899Z,15.25
2022-12-01T00:56:16.770Z,15.50
2022-12-01T00:58:43.609Z,15.10
2022-12-01T01:01:22.978Z,15.35
2022-12-01T01:04:05.287Z,15.95
2022-12-01T01:06:32.381Z,15.48
2022-12-01T01:09:05.267Z,17.80
2022-12-01T01:11:32.088Z,15.88
2022-12-01T01:13:59.129Z,14.65
2022-12-01T01:16:26.638Z,14.20
2022-12-01T01:18:53.935Z,19.17
2022-12-01T01:21:21.385Z,28.75
2022-12-01T01:23:49.264Z,20.75
2022-12-01T01:26:17.674Z,20.27
2022-12-01T01:28:44.719Z,19.40
2022-12-01T01:31:22.179Z,17.55
2022-12-01T01:34:00.801Z,15.38
2022-12-01T01:36:28.416Z,14.18
2022-12-01T01:38:55.898Z,15.85
2022-12-01T01:41:22.979Z,15.07
2022-12-01T01:43:49.693Z,15.27
2022-12-01T01:46:22.428Z,16.65
2022-12-01T01:49:05.200Z,16.65
2022-12-01T01:51:43.210Z,15.05
2022-12-01T01:54:15.850Z,16.73
2022-12-01T01:56:46.584Z,15.75
2022-12-01T01:59:15.491Z,15.35
2022-12-01T02:01:42.474Z,15.55
2022-12-01T02:04:09.397Z,16.30
2022-12-01T02:06:36.646Z,16.00
2022-12-01T02:09:09.119Z,15.57
2022-12-01T02:11:48.740Z,15.43
2022-12-01T02:14:29.294Z,15.45
2022-12-01T02:17:01.891Z,16.33
2022-12-01T02:19:42.477Z,16.70
2022-12-01T02:22:23.671Z,15.02
2022-12-01T02:25:12.870Z,14.98
2022-12-01T02:27:54.119Z,16.08
2022-12-01T02:30:34.723Z,15.95
2022-12-01T02:33:15.658Z,15.90
2022-12-01T02:35:59.271Z,16.17
2022-12-01T02:38:29.116Z,15.65
2022-12-01T02:41:04.872Z,17.33
2022-12-01T02:43:31.645Z,14.77
2022-12-01T02:46:02.912Z,15.35
2022-12-01T02:48:37.568Z,15.68
2022-12-01T02:51:24.438Z,15.32
2022-12-01T02:53:51.703Z,15.45
2022-12-01T02:56:21.015Z,15.35
2022-12-01T02:58:47.885Z,14.95
2022-12-01T03:01:29.856Z,15.02
2022-12-01T03:04:11.014Z,15.00
2022-12-01T03:06:58.219Z,15.15
2022-12-01T03:09:30.836Z,14.68
2022-12-01T03:12:00.853Z,15.05
2022-12-01T03:14:27.551Z,15.18
2022-12-01T03:16:54.448Z,15.43
2022-12-01T03:19:57.124Z,15.13
2022-12-01T03:22:29.354Z,15.80
2022-12-01T03:24:58.965Z,17.92
2022-12-01T03:27:28.073Z,16.33
2022-12-01T03:29:56.118Z,15.43
2022-12-01T03:35:36.557Z,15.27
2022-12-01T03:38:06.849Z,13.68
2022-12-01T03:40:36.802Z,13.73
2022-12-01T03:43:07.558Z,14.68
2022-12-01T03:45:40.359Z,14.00
2022-12-01T03:48:07.502Z,14.52
2022-12-01T03:50:46.134Z,13.77
2022-12-01T03:53:22.625Z,15.35
2022-12-01T03:55:52.518Z,14.07
2022-12-01T03:58:23.229Z,13.98
2022-12-01T04:00:53.376Z,14.85
2022-12-01T04:03:25.041Z,14.50
2022-12-01T04:05:51.835Z,14.13
2022-12-01T04:08:18.862Z,14.85
2022-12-01T04:10:48.810Z,14.38
2022-12-01T04:13:25.827Z,14.85
2022-12-01T04:15:56.044Z,14.05
2022-12-01T04:18:25.616Z,14.77
2022-12-01T04:20:55.570Z,13.77
2022-12-01T04:23:36.469Z,14.18
2022-12-01T04:26:05.060Z,13.05
2022-12-01T04:28:31.902Z,13.38
2022-12-01T04:30:58.864Z,13.80
2022-12-01T04:33:25.753Z,15.77
2022-12-01T04:35:59.113Z,14.73
2022-12-01T04:38:30.528Z,15.73
2022-12-01T04:40:58.077Z,14.65
2022-12-01T04:43:27.323Z,16.50
2022-12-01T04:46:00.436Z,19.45
2022-12-01T04:48:27.277Z,18.35
2022-12-01T04:50:54.039Z,18.52
2022-12-01T04:53:21.040Z,16.77
2022-12-01T04:55:47.719Z,20.20
2022-12-01T04:58:33.260Z,22.17
2022-12-01T05:01:04.435Z,19.45
2022-12-01T05:03:31.501Z,16.65
2022-12-01T05:06:17.558Z,13.32
2022-12-01T05:08:50.423Z,14.13
2022-12-01T05:11:18.337Z,13.45
2022-12-01T05:13:49.149Z,12.88
2022-12-01T05:16:17.838Z,13.52
2022-12-01T05:18:48.278Z,13.52
2022-12-01T05:21:20.393Z,12.77
2022-12-01T05:23:47.161Z,13.30
2022-12-01T05:26:14.078Z,13.02
2022-12-01T05:28:41.190Z,14.68
2022-12-01T05:31:13.182Z,14.18
2022-12-01T05:33:39.876Z,13.70
2022-12-01T05:36:07.064Z,13.55
2022-12-01T05:38:33.833Z,13.82
2022-12-01T05:41:00.796Z,13.95
2022-12-01T05:43:35.214Z,13.27
2022-12-01T05:46:01.969Z,14.35
2022-12-01T05:48:29.271Z,13.10
2022-12-01T05:51:05.036Z,26.27
2022-12-01T05:53:32.094Z,38.13
2022-12-01T05:55:59.027Z,51.97
2022-12-01T05:58:25.731Z,27.38
2022-12-01T06:00:52.571Z,20.75
2022-12-01T06:03:19.546Z,16.85
2022-12-01T06:05:46.150Z,16.42
2022-12-01T06:08:12.980Z,17.48
2022-12-01T06:10:39.585Z,15.27
2022-12-01T06:13:06.299Z,15.88
2022-12-01T06:15:33.196Z,16.45
2022-12-01T06:18:00.110Z,19.25
2022-12-01T06:20:26.806Z,17.13
2022-12-01T06:22:53.470Z,14.85
2022-12-01T06:25:20.077Z,15.32
2022-12-01T06:27:47.269Z,18.20
2022-12-01T06:30:14.370Z,14.88
2022-12-01T06:32:41.071Z,16.05
2022-12-01T06:35:08.017Z,15.85
2022-12-01T06:37:40.469Z,16.08
2022-12-01T06:40:07.527Z,15.23
2022-12-01T06:42:34.345Z,16.27
2022-12-01T06:45:01.021Z,41.08
2022-12-01T06:47:27.621Z,115.82
2022-12-01T06:49:54.489Z,112.80
2022-12-01T06:52:21.253Z,35.58
2022-12-01T06:54:48.020Z,26.52
2022-12-01T06:57:15.613Z,50.50
2022-12-01T06:59:42.628Z,37.45
2022-12-01T07:02:10.775Z,23.13
2022-12-01T07:04:37.563Z,18.20
2022-12-01T07:07:05.423Z,19.60
2022-12-01T07:09:32.149Z,18.60
2022-12-01T07:11:59.032Z,20.95
2022-12-01T07:14:26.765Z,18.95
2022-12-01T07:16:56.470Z,16.88
2022-12-01T07:19:26.081Z,17.17
2022-12-01T07:21:52.798Z,18.58
2022-12-01T07:24:19.404Z,17.40
2022-12-01T07:26:46.283Z,22.65
2022-12-01T07:29:13.022Z,21.83
2022-12-01T07:31:39.671Z,29.55
2022-12-01T07:34:06.509Z,20.65
2022-12-01T07:36:33.297Z,18.02
2022-12-01T07:39:00.111Z,17.52
2022-12-01T07:41:32.207Z,16.85
2022-12-01T07:44:02.345Z,16.50
2022-12-01T07:46:29.457Z,16.95
2022-12-01T07:48:56.867Z,29.63
2022-12-01T07:51:25.013Z,19.05
2022-12-01T07:53:52.753Z,17.50
2022-12-01T07:56:19.838Z,17.88
2022-12-01T07:58:47.069Z,18.25
2022-12-01T08:01:24.917Z,15.07
2022-12-01T08:03:53.004Z,18.77
2022-12-01T08:06:20.259Z,16.60
2022-12-01T08:08:47.086Z,17.33
2022-12-01T08:11:18.798Z,16.27
2022-12-01T08:13:45.646Z,16.17
2022-12-01T08:16:13.505Z,18.25
2022-12-01T08:18:41.181Z,19.30
2022-12-01T08:21:11.451Z,17.83
2022-12-01T08:23:38.488Z,14.70
2022-12-01T08:26:48.500Z,16.15
2022-12-01T08:29:19.926Z,15.10
2022-12-01T08:31:50.369Z,14.90
2022-12-01T08:34:17.249Z,14.98
2022-12-01T08:37:45.443Z,16.75
2022-12-01T08:41:03.836Z,15.82
2022-12-01T08:46:55.252Z,14.73
2022-12-01T08:52:37.233Z,14.68
2022-12-01T08:55:04.214Z,14.52
2022-12-01T08:57:48.784Z,14.27
2022-12-01T09:00:16.041Z,14.63
2022-12-01T09:02:45.880Z,13.95
2022-12-01T09:08:45.895Z,15.77
2022-12-01T09:11:14.038Z,19.83
2022-12-01T09:13:54.455Z,29.92
2022-12-01T09:16:21.918Z,18.75
2022-12-01T09:18:48.794Z,14.45
2022-12-01T09:21:20.687Z,13.35
2022-12-01T09:23:48.045Z,14.30
2022-12-01T09:26:18.728Z,13.93
2022-12-01T09:28:46.217Z,18.13
2022-12-01T09:31:13.699Z,16.83
2022-12-01T09:33:40.803Z,16.27
2022-12-01T09:36:11.299Z,17.13
2022-12-01T09:38:53.343Z,15.70
2022-12-01T09:41:28.347Z,14.55
2022-12-01T09:44:17.127Z,13.95
2022-12-01T09:46:47.177Z,13.80
2022-12-01T09:49:39.839Z,12.63
2022-12-01T09:52:10.657Z,18.25
2022-12-01T09:54:37.424Z,21.35
2022-12-01T09:57:04.022Z,15.82
2022-12-01T09:59:40.392Z,14.15
2022-12-01T10:02:17.551Z,14.38
2022-12-01T10:04:46.636Z,13.48
2022-12-01T10:07:27.396Z,13.50
2022-12-01T10:10:06.525Z,13.50
2022-12-01T10:12:34.598Z,12.60
2022-12-01T10:15:15.440Z,13.57
2022-12-01T10:17:52.407Z,13.73
2022-12-01T10:20:19.192Z,14.70
2022-12-01T10:22:45.990Z,18.00
2022-12-01T10:25:45.642Z,17.17
2022-12-01T10:28:21.426Z,14.02
2022-12-01T10:30:52.176Z,13.40
2022-12-01T10:33:18.998Z,13.07
2022-12-01T10:35:45.917Z,12.88
2022-12-01T10:38:15.249Z,13.02
2022-12-01T10:40:45.636Z,13.15
2022-12-01T10:43:12.678Z,12.38
2022-12-01T10:45:42.364Z,13.48
2022-12-01T10:48:17.113Z,12.07
2022-12-01T10:50:54.506Z,12.65
2022-12-01T10:53:24.273Z,12.60
2022-12-01T10:55:52.219Z,12.75
2022-12-01T10:58:19.884Z,13.38
2022-12-01T11:01:00.127Z,13.27
2022-12-01T11:05:59.804Z,11.88
2022-12-01T11:08:29.720Z,12.32
2022-12-01T11:10:56.885Z,11.68
2022-12-01T11:13:25.552Z,12.23
2022-12-01T11:15:53.744Z,11.48
2022-12-01T11:18:29.995Z,11.63
2022-12-01T11:21:10.587Z,13.25
2022-12-01T11:23:38.483Z,17.92
2022-12-01T11:26:07.740Z,14.70
2022-12-01T11:28:35.126Z,13.55
2022-12-01T11:31:04.692Z,13.05
2022-12-01T11:33:32.727Z,12.57
2022-12-01T11:35:59.627Z,12.90
2022-12-01T11:38:41.133Z,13.05
2022-12-01T11:41:23.645Z,14.38
2022-12-01T11:47:22.119Z,14.98
2022-12-01T11:49:57.647Z,14.15
2022-12-01T11:52:30.762Z,16.70
2022-12-01T11:55:20.653Z,14.30
2022-12-01T11:57:49.714Z,13.90
2022-12-01T12:00:21.397Z,16.10
2022-12-01T12:02:56.472Z,13.07
2022-12-01T12:05:26.025Z,12.55
2022-12-01T12:08:06.729Z,11.73
2022-12-01T12:10:42.433Z,12.77
2022-12-01T12:13:09.096Z,13.95
2022-12-01T12:15:44.841Z,10.88
2022-12-01T12:18:25.315Z,11.20
2022-12-01T12:21:03.350Z,10.82
2022-12-01T12:23:50.384Z,12.18
2022-12-01T12:26:20.851Z,10.50
2022-12-01T12:29:01.523Z,10.40
2022-12-01T12:31:32.731Z,11.85
2022-12-01T12:34:05.508Z,14.88
2022-12-01T12:36:32.335Z,13.50
2022-12-01T12:39:12.173Z,14.32
2022-12-01T12:41:59.541Z,13.95
2022-12-01T12:44:56.587Z,12.40
2022-12-01T12:50:48.910Z,14.63
2022-12-01T12:53:32.312Z,13.68
2022-12-01T12:56:06.086Z,16.67
2022-12-01T12:58:36.553Z,16.75
2022-12-01T13:01:12.461Z,13.73
2022-12-01T13:03:44.758Z,14.75
2022-12-01T13:06:26.121Z,14.00
2022-12-01T13:09:14.647Z,14.43
2022-12-01T13:11:50.050Z,23.73
2022-12-01T13:14:40.540Z,16.35
2022-12-01T13:17:22.098Z,15.40
2022-12-01T13:20:06.674Z,14.27
2022-12-01T13:22:51.357Z,12.23
2022-12-01T13:25:43.368Z,16.20
2022-12-01T13:28:41.549Z,16.17
2022-12-01T13:31:24.699Z,15.70
2022-12-01T13:34:15.600Z,24.73
2022-12-01T13:36:51.319Z,31.80
2022-12-01T13:39:22.784Z,18.63
2022-12-01T13:42:03.589Z,23.38
2022-12-01T13:44:44.324Z,47.85
2022-12-01T13:47:11.903Z,22.40
2022-12-01T13:49:44.082Z,26.48
2022-12-01T13:52:17.850Z,27.73
2022-12-01T13:54:58.471Z,46.92
2022-12-01T13:57:29.424Z,31.42
2022-12-01T14:00:01.981Z,18.10
2022-12-01T14:02:30.393Z,16.85
2022-12-01T14:05:17.584Z,31.35
2022-12-01T14:07:44.600Z,37.83
2022-12-01T14:10:25.235Z,28.33
2022-12-01T14:12:53.223Z,25.90
2022-12-01T14:15:35.202Z,20.52
2022-12-01T14:18:22.065Z,24.38
2022-12-01T14:20:49.143Z,29.38
2022-12-01T14:23:30.736Z,32.05
2022-12-01T14:26:11.754Z,19.10
2022-12-01T14:28:52.523Z,33.97
2022-12-01T14:31:19.385Z,37.17
2022-12-01T14:33:49.052Z,27.25
2022-12-01T14:36:25.094Z,27.80
2022-12-01T14:39:11.604Z,30.98
2022-12-01T14:41:38.434Z,34.08
2022-12-01T14:44:14.232Z,27.45
2022-12-01T14:46:46.219Z,42.60
2022-12-01T14:49:14.337Z,47.40
2022-12-01T14:51:46.325Z,33.75
2022-12-01T14:54:26.910Z,21.17
2022-12-01T14:56:55.837Z,19.38
2022-12-01T14:59:24.237Z,22.40
2022-12-01T15:01:52.144Z,30.13
2022-12-01T15:04:28.275Z,19.98
2022-12-01T15:06:56.486Z,22.65
2022-12-01T15:09:39.580Z,20.33
2022-12-01T15:12:09.181Z,30.77
2022-12-01T15:14:46.607Z,37.72
2022-12-01T15:17:28.516Z,68.10
2022-12-01T15:20:04.004Z,84.57
2022-12-01T15:22:31.956Z,132.38
2022-12-01T15:25:12.531Z,43.75
2022-12-01T15:27:39.570Z,23.30
2022-12-01T15:30:06.812Z,22.35
2022-12-01T15:32:38.195Z,29.40
2022-12-01T15:35:05.886Z,26.00
2022-12-01T15:37:40.853Z,22.40
2022-12-01T15:40:59.544Z,21.08
2022-12-01T15:43:06.841Z,15.40
2022-12-01T15:46:05.355Z,23.67
2022-12-01T15:48:34.508Z,18.73
2022-12-01T15:51:12.625Z,18.10
2022-12-01T15:53:48.540Z,20.75
2022-12-01T15:56:15.493Z,16.77
2022-12-01T15:58:49.394Z,20.20
2022-12-01T16:01:26.864Z,21.47
2022-12-01T16:04:03.481Z,28.83
2022-12-01T16:06:34.383Z,18.10
2022-12-01T16:09:02.721Z,19.02
2022-12-01T16:11:38.905Z,20.48
2022-12-01T16:14:22.714Z,20.30
2022-12-01T16:16:49.836Z,18.48
2022-12-01T16:19:16.888Z,17.60
2022-12-01T16:21:48.398Z,21.42
2022-12-01T16:24:17.333Z,17.77
2022-12-01T16:26:50.668Z,15.20
2022-12-01T16:29:24.224Z,19.30
2022-12-01T16:32:18.789Z,22.63
2022-12-01T16:34:46.165Z,15.98
2022-12-01T16:37:14.621Z,14.93
2022-12-01T16:39:41.429Z,19.50
2022-12-01T16:42:11.467Z,24.25
2022-12-01T16:44:38.282Z,20.27
2022-12-01T16:47:10.758Z,18.58
2022-12-01T16:49:37.492Z,16.10
2022-12-01T16:52:21.992Z,15.93
2022-12-01T16:54:51.731Z,15.15
2022-12-01T16:57:18.569Z,15.73
2022-12-01T16:59:45.330Z,17.90
2022-12-01T17:02:12.701Z,22.90
2022-12-01T17:04:39.579Z,21.02
2022-12-01T17:07:06.575Z,22.90
2022-12-01T17:09:33.365Z,16.80
2022-12-01T17:12:00.158Z,18.88
2022-12-01T17:14:26.897Z,23.48
2022-12-01T17:16:58.290Z,61.97
2022-12-01T17:19:27.756Z,24.65
2022-12-01T17:21:55.935Z,19.15
2022-12-01T17:24:26.117Z,20.05
2022-12-01T17:26:53.185Z,18.23
2022-12-01T17:29:19.941Z,19.45
2022-12-01T17:31:48.925Z,21.55
2022-12-01T17:34:18.661Z,30.77
2022-12-01T17:36:45.511Z,19.95
2022-12-01T17:39:12.551Z,32.42
2022-12-01T17:41:42.318Z,26.38
2022-12-01T17:44:09.046Z,36.03
2022-12-01T17:46:35.852Z,18.48
2022-12-01T17:49:08.717Z,21.63
2022-12-01T17:51:36.506Z,32.72
2022-12-01T17:54:03.339Z,39.38
2022-12-01T17:56:30.035Z,16.67
2022-12-01T17:58:59.889Z,27.35
2022-12-01T18:01:30.228Z,24.98
2022-12-01T18:03:57.848Z,23.23
2022-12-01T18:06:25.778Z,19.48
2022-12-01T18:08:53.532Z,28.83
2022-12-01T18:11:31.109Z,60.00
2022-12-01T18:13:58.557Z,48.42
2022-12-01T18:16:26.662Z,21.60
2022-12-01T18:18:53.695Z,28.50
2022-12-01T18:21:21.439Z,35.53
2022-12-01T18:24:01.124Z,25.58
2022-12-01T18:26:28.667Z,21.02
2022-12-01T18:28:56.520Z,16.23
2022-12-01T18:31:23.552Z,17.10
2022-12-01T18:33:55.170Z,15.98
2022-12-01T18:36:22.883Z,17.42
2022-12-01T18:38:50.507Z,17.55
2022-12-01T18:41:17.525Z,17.98
2022-12-01T18:43:47.376Z,15.85
2022-12-01T18:46:15.102Z,18.85
2022-12-01T18:48:46.026Z,15.55
2022-12-01T18:51:13.154Z,15.90
2022-12-01T18:53:40.558Z,15.73
2022-12-01T18:56:11.604Z,16.85
2022-12-01T18:58:39.163Z,18.13
2022-12-01T19:01:17.404Z,24.30
2022-12-01T19:03:44.312Z,23.60
2022-12-01T19:06:13.055Z,32.72
2022-12-01T19:08:40.277Z,26.85
2022-12-01T19:11:07.484Z,73.53
2022-12-01T19:13:37.396Z,46.70
2022-12-01T19:16:08.797Z,18.38
2022-12-01T19:18:36.256Z,21.15
2022-12-01T19:21:03.893Z,18.35
2022-12-01T19:23:30.668Z,29.15
2022-12-01T19:25:57.638Z,17.42
2022-12-01T19:28:25.153Z,21.10
2022-12-01T19:30:52.594Z,20.33
2022-12-01T19:33:19.316Z,23.25
2022-12-01T19:35:46.394Z,19.80
2022-12-01T19:38:13.131Z,42.50
2022-12-01T19:40:39.813Z,41.63
2022-12-01T19:43:06.613Z,38.83
2022-12-01T19:45:35.745Z,26.20
2022-12-01T19:48:03.933Z,17.25
2022-12-01T19:50:30.723Z,22.15
2022-12-01T19:53:00.843Z,22.67
2022-12-01T19:55:27.705Z,19.15
2022-12-01T19:57:54.739Z,22.25
2022-12-01T20:00:22.315Z,36.90
2022-12-01T20:02:49.431Z,37.38
2022-12-01T20:05:16.612Z,18.67
2022-12-01T20:07:43.410Z,36.72
2022-12-01T20:10:10.343Z,24.58
2022-12-01T20:12:37.202Z,18.88
2022-12-01T20:15:08.401Z,99.78
2022-12-01T20:17:36.459Z,38.10
2022-12-01T20:20:03.516Z,37.13
2022-12-01T20:22:33.542Z,43.03
2022-12-01T20:25:00.435Z,30.30
2022-12-01T20:27:27.892Z,19.23
2022-12-01T20:29:54.785Z,21.58
2022-12-01T20:32:23.671Z,22.35
2022-12-01T20:34:51.254Z,68.32
2022-12-01T20:37:27.259Z,64.55
2022-12-01T20:39:54.223Z,24.77
2022-12-01T20:42:22.525Z,18.40
2022-12-01T20:44:49.521Z,38.83
2022-12-01T20:47:18.726Z,42.45
2022-12-01T20:49:45.631Z,18.42
2022-12-01T20:52:12.397Z,19.90
2022-12-01T20:54:39.399Z,24.50
2022-12-01T20:57:06.136Z,18.85
2022-12-01T20:59:35.966Z,24.88
2022-12-01T21:02:03.230Z,29.10
2022-12-01T21:04:29.959Z,14.48
2022-12-01T21:06:57.594Z,16.73
2022-12-01T21:09:25.046Z,17.10
2022-12-01T21:12:05.710Z,17.40
2022-12-01T21:14:41.698Z,18.75
2022-12-01T21:17:14.364Z,16.58
2022-12-01T21:19:45.596Z,15.88
2022-12-01T21:22:13.204Z,23.55
2022-12-01T21:24:43.964Z,24.38
2022-12-01T21:27:15.049Z,29.98
2022-12-01T21:29:44.027Z,18.73
2022-12-01T21:32:15.383Z,31.92
2022-12-01T21:34:42.487Z,26.25
2022-12-01T21:37:19.832Z,24.60
2022-12-01T21:39:51.189Z,22.88
2022-12-01T21:42:20.270Z,20.63
2022-12-01T21:44:47.991Z,12.55
2022-12-01T21:47:19.815Z,14.88
2022-12-01T21:49:47.809Z,30.55
2022-12-01T21:52:18.065Z,21.77
2022-12-01T21:54:44.971Z,15.88
2022-12-01T21:57:38.536Z,17.08
2022-12-01T22:00:29.225Z,18.38
2022-12-01T22:03:10.440Z,12.82
2022-12-01T22:05:38.711Z,13.50
2022-12-01T22:11:04.787Z,12.88
2022-12-01T22:13:31.572Z,17.23
2022-12-01T22:15:58.518Z,12.45
2022-12-01T22:18:32.764Z,11.18
2022-12-01T22:21:01.303Z,11.10
2022-12-01T22:23:36.555Z,11.50
2022-12-01T22:26:14.086Z,12.13
2022-12-01T22:28:40.928Z,12.18
2022-12-01T22:31:13.507Z,16.45
2022-12-01T22:33:40.202Z,18.77
2022-12-01T22:36:19.007Z,14.50
2022-12-01T22:38:45.852Z,15.77
2022-12-01T22:41:16.744Z,13.77
2022-12-01T22:43:46.701Z,13.13
2022-12-01T22:46:19.244Z,11.60
2022-12-01T22:48:47.917Z,13.45
2022-12-01T22:51:14.756Z,14.30
2022-12-01T22:53:45.525Z,11.38
2022-12-01T22:56:24.472Z,12.48
2022-12-01T22:58:51.323Z,13.02
2022-12-01T23:01:24.187Z,13.35
2022-12-01T23:03:53.724Z,13.73
2022-12-01T23:06:34.496Z,12.07
2022-12-01T23:09:02.036Z,13.32
2022-12-01T23:11:28.632Z,10.65
2022-12-01T23:13:55.641Z,11.77
2022-12-01T23:16:22.582Z,9.90
2022-12-01T23:18:49.429Z,9.55
2022-12-01T23:21:16.248Z,9.43
2022-12-01T23:23:43.317Z,10.00
2022-12-01T23:26:13.066Z,9.88
2022-12-01T23:28:41.441Z,11.27
2022-12-01T23:31:09.385Z,12.85
2022-12-01T23:33:36.556Z,11.13
2022-12-01T23:36:11.934Z,10.05
2022-12-01T23:38:39.679Z,9.27
2022-12-01T23:41:07.599Z,15.10
2022-12-01T23:43:42.777Z,17.80
2022-12-01T23:46:17.599Z,15.13
2022-12-01T23:51:24.863Z,15.88
2022-12-01T23:53:53.397Z,10.77
2022-12-01T23:56:21.365Z,9.80
